Time;durP1;ratioP1;P1;durP2;ratioP2;P2;SDS_P1;SDS_P2;PMS_P1;PMS_P2;Temp;Humidity;BMP_temperature;BMP_pressure;BME280_temperature;BME280_humidity;BME280_pressure;Samples;Min_cycle;Max_cycle;Signal;HPM_P1;HPM_P2
2022/07/14 00:01:36;;;;;;;9.73;2.42;;;16.70;99.90;;;;;;4930985;29;20059;-70
2022/07/14 00:04:02;;;;;;;12.77;2.90;;;16.70;99.90;;;;;;4911422;29;20098;-71
2022/07/14 00:06:31;;;;;;;11.70;2.42;;;16.70;99.90;;;;;;4933205;29;20051;-71
2022/07/14 00:08:56;;;;;;;9.93;2.65;;;16.70;99.90;;;;;;4924877;29;20052;-71
2022/07/14 00:11:22;;;;;;;11.35;2.85;;;16.70;99.90;;;;;;4930823;29;20114;-71
2022/07/14 00:13:48;;;;;;;11.30;2.60;;;16.70;99.90;;;;;;4913905;29;20044;-70
2022/07/14 00:16:13;;;;;;;6.50;2.25;;;16.60;99.90;;;;;;4931193;29;20582;-70
2022/07/14 00:18:43;;;;;;;11.43;2.92;;;16.60;99.90;;;;;;4927716;29;20043;-70
2022/07/14 00:21:15;;;;;;;11.68;3.75;;;16.60;99.90;;;;;;4913540;29;20094;-70
2022/07/14 00:23:45;;;;;;;11.13;2.65;;;16.70;99.90;;;;;;4913353;29;20043;-70
2022/07/14 00:26:12;;;;;;;13.30;2.58;;;16.70;99.90;;;;;;4929045;29;20044;-70
2022/07/14 00:28:38;;;;;;;12.00;2.90;;;16.60;99.90;;;;;;4930053;29;20047;-70
2022/07/14 00:31:11;;;;;;;12.48;2.70;;;16.50;99.90;;;;;;4912657;29;20491;-70
2022/07/14 00:33:38;;;;;;;13.00;2.80;;;16.50;99.90;;;;;;4931646;29;20048;-70
2022/07/14 00:36:05;;;;;;;9.10;2.67;;;16.50;99.90;;;;;;4928939;29;20044;-70
2022/07/14 00:38:31;;;;;;;9.30;2.38;;;16.40;99.90;;;;;;4928341;29;20513;-70
2022/07/14 00:40:57;;;;;;;10.55;2.70;;;16.40;99.90;;;;;;4930251;29;20040;-70
2022/07/14 00:43:23;;;;;;;11.45;2.60;;;16.30;99.90;;;;;;4913371;29;20047;-70
2022/07/14 00:45:48;;;;;;;13.38;3.03;;;16.30;99.90;;;;;;4909821;29;20814;-70
2022/07/14 00:48:16;;;;;;;10.02;3.13;;;16.20;99.90;;;;;;4930138;29;20079;-69
2022/07/14 00:50:44;;;;;;;11.73;2.55;;;16.20;99.90;;;;;;4931648;29;20066;-70
2022/07/14 00:53:12;;;;;;;10.23;2.70;;;16.20;99.90;;;;;;4917270;29;20044;-70
2022/07/14 00:55:42;;;;;;;11.10;2.65;;;16.20;99.90;;;;;;4935673;29;20040;-70
2022/07/14 00:58:09;;;;;;;12.48;3.22;;;16.20;99.90;;;;;;4928174;29;20070;-70
2022/07/14 01:00:34;;;;;;;13.48;3.22;;;16.20;99.90;;;;;;4932545;29;20058;-70
2022/07/14 01:03:00;;;;;;;9.15;2.95;;;16.10;99.90;;;;;;4926855;29;20048;-70
2022/07/14 01:05:26;;;;;;;12.65;3.00;;;16.00;99.90;;;;;;4934716;29;20059;-70
2022/07/14 01:07:51;;;;;;;9.43;2.90;;;16.00;99.90;;;;;;4929127;29;20502;-70
2022/07/14 01:10:17;;;;;;;9.23;2.63;;;15.90;99.90;;;;;;4918512;29;20517;-70
2022/07/14 01:12:47;;;;;;;10.85;3.00;;;15.80;99.90;;;;;;4931962;29;20044;-70
2022/07/14 01:15:20;;;;;;;11.15;2.60;;;15.90;99.90;;;;;;4906688;29;20044;-70
2022/07/14 01:17:47;;;;;;;10.52;3.20;;;15.90;99.90;;;;;;4915834;29;20050;-70
2022/07/14 01:20:14;;;;;;;10.63;3.00;;;15.80;99.90;;;;;;4931248;29;20500;-71
2022/07/14 01:22:40;;;;;;;10.20;3.00;;;15.70;99.90;;;;;;4916366;29;20043;-71
2022/07/14 01:25:06;;;;;;;14.35;3.60;;;15.70;99.90;;;;;;4919282;29;20300;-70
2022/07/14 01:27:33;;;;;;;10.70;2.72;;;15.60;99.90;;;;;;4931486;29;20040;-70
2022/07/14 01:30:02;;;;;;;8.27;2.78;;;15.60;99.90;;;;;;4930050;29;20175;-70
2022/07/14 01:32:28;;;;;;;12.15;3.08;;;15.50;99.90;;;;;;4915666;29;20118;-70
2022/07/14 01:34:54;;;;;;;11.93;3.22;;;15.50;99.90;;;;;;4930904;29;20079;-70
2022/07/14 01:37:20;;;;;;;12.70;3.38;;;15.50;99.90;;;;;;4917942;29;20060;-70
2022/07/14 01:39:49;;;;;;;11.18;3.15;;;15.40;99.90;;;;;;4916624;29;20055;-70
2022/07/14 01:42:14;;;;;;;12.15;3.33;;;15.40;99.90;;;;;;4912503;29;20047;-70
2022/07/14 01:44:40;;;;;;;13.00;3.13;;;15.40;99.90;;;;;;4916588;29;20048;-70
2022/07/14 01:47:06;;;;;;;11.32;3.30;;;15.30;99.90;;;;;;4934418;29;20876;-70
2022/07/14 01:49:32;;;;;;;10.63;2.72;;;15.30;99.90;;;;;;4922556;29;20054;-70
2022/07/14 01:51:57;;;;;;;12.65;3.03;;;15.30;99.90;;;;;;4917763;29;20044;-70
2022/07/14 01:54:26;;;;;;;10.07;3.33;;;15.30;99.90;;;;;;4932753;29;20046;-70
2022/07/14 01:56:52;;;;;;;11.02;3.10;;;15.30;99.90;;;;;;4934610;29;20053;-70
2022/07/14 01:59:17;;;;;;;10.73;3.33;;;15.20;99.90;;;;;;4942410;28;20391;-70
2022/07/14 02:01:44;;;;;;;9.00;3.00;;;15.10;99.90;;;;;;4915929;29;20604;-70
2022/07/14 02:04:13;;;;;;;10.60;3.22;;;15.10;99.90;;;;;;4911618;29;20373;-70
2022/07/14 02:06:57;;;;;;;13.10;3.47;;;15.10;99.90;;;;;;4917951;29;20055;-70
2022/07/14 02:09:22;;;;;;;11.05;2.97;;;15.10;99.90;;;;;;4932222;29;20100;-70
2022/07/14 02:14:33;;;;;;;13.00;3.38;;;15.00;99.90;;;;;;4929919;29;20388;-70
2022/07/14 02:17:19;;;;;;;9.45;3.38;;;15.00;99.90;;;;;;4912094;29;20056;-70
2022/07/14 02:19:45;;;;;;;12.30;2.90;;;15.00;99.90;;;;;;4931401;29;20055;-70
2022/07/14 02:22:10;;;;;;;14.13;3.78;;;15.00;99.90;;;;;;4916199;29;20143;-70
2022/07/14 02:24:36;;;;;;;12.52;3.00;;;14.90;99.90;;;;;;4919237;29;20050;-71
2022/07/14 02:27:02;;;;;;;12.32;3.40;;;14.90;99.90;;;;;;4934084;29;20055;-70
2022/07/14 02:29:28;;;;;;;11.90;4.28;;;14.90;99.90;;;;;;4931141;29;20040;-70
2022/07/14 02:31:53;;;;;;;13.27;4.45;;;14.90;99.90;;;;;;4932486;29;20043;-71
2022/07/14 02:34:19;;;;;;;10.63;3.70;;;14.90;99.90;;;;;;4932271;29;20048;-71
2022/07/14 02:36:45;;;;;;;11.43;3.80;;;14.90;99.90;;;;;;4932465;29;20059;-70
2022/07/14 02:39:12;;;;;;;10.02;3.78;;;14.80;99.90;;;;;;4926707;29;20036;-71
2022/07/14 02:41:38;;;;;;;13.68;3.67;;;14.80;99.90;;;;;;4915018;29;20087;-70
2022/07/14 02:44:04;;;;;;;8.82;3.30;;;14.80;99.90;;;;;;4932478;29;20087;-70
2022/07/14 02:46:29;;;;;;;8.90;2.97;;;14.80;99.90;;;;;;4935224;29;20070;-70
2022/07/14 02:48:55;;;;;;;10.43;3.10;;;14.70;99.90;;;;;;4929663;29;20123;-70
2022/07/14 02:51:21;;;;;;;11.40;3.83;;;14.70;99.90;;;;;;4915142;29;20103;-70
2022/07/14 02:53:46;;;;;;;8.77;2.95;;;14.70;99.90;;;;;;4932879;29;20132;-71
2022/07/14 02:56:12;;;;;;;9.75;3.33;;;14.60;99.90;;;;;;4931335;29;20526;-70
2022/07/14 02:58:41;;;;;;;10.55;3.60;;;14.60;99.90;;;;;;4932571;29;20094;-70
2022/07/14 03:01:08;;;;;;;9.77;3.40;;;14.60;99.90;;;;;;4915028;29;20059;-71
2022/07/14 03:03:34;;;;;;;9.23;3.45;;;14.60;99.90;;;;;;4931466;29;20133;-70
2022/07/14 03:06:13;;;;;;;10.57;3.60;;;14.60;99.90;;;;;;4916014;29;20047;-70
2022/07/14 03:08:42;;;;;;;10.38;3.70;;;14.50;99.90;;;;;;4907809;29;20048;-70
2022/07/14 03:11:08;;;;;;;8.98;3.40;;;14.40;99.90;;;;;;4931692;29;20062;-70
2022/07/14 03:13:37;;;;;;;9.65;3.60;;;14.40;99.90;;;;;;4929118;29;20043;-70
2022/07/14 03:16:06;;;;;;;9.80;3.40;;;14.30;99.90;;;;;;4917206;29;20062;-70
2022/07/14 03:18:32;;;;;;;10.95;3.30;;;14.30;99.90;;;;;;4927581;29;20174;-70
2022/07/14 03:20:57;;;;;;;12.65;3.20;;;14.20;99.90;;;;;;4933062;29;20135;-70
2022/07/14 03:23:23;;;;;;;8.75;3.30;;;14.20;99.90;;;;;;4934162;29;20047;-72
2022/07/14 03:25:49;;;;;;;10.45;3.53;;;14.20;99.90;;;;;;4932172;29;20407;-73
2022/07/14 03:28:15;;;;;;;10.77;3.38;;;14.20;99.90;;;;;;4931398;29;20043;-72
2022/07/14 03:30:42;;;;;;;8.77;3.63;;;14.20;99.90;;;;;;4931072;29;20403;-72
2022/07/14 03:33:08;;;;;;;9.18;3.88;;;14.30;99.90;;;;;;4926468;29;20218;-73
2022/07/14 03:35:39;;;;;;;9.65;3.63;;;14.30;99.90;;;;;;4932748;29;20418;-70
2022/07/14 03:38:05;;;;;;;10.95;3.90;;;14.40;99.90;;;;;;4932427;29;20487;-71
2022/07/14 03:40:31;;;;;;;14.48;4.72;;;14.40;99.90;;;;;;4931275;29;20043;-70
2022/07/14 03:42:57;;;;;;;10.82;4.32;;;14.50;99.90;;;;;;4931514;29;20048;-71
2022/07/14 03:45:28;;;;;;;10.80;4.30;;;14.50;99.90;;;;;;4931230;29;20119;-70
2022/07/14 03:47:54;;;;;;;12.52;4.60;;;14.50;99.90;;;;;;4914623;29;20086;-70
2022/07/14 03:50:20;;;;;;;13.55;4.63;;;14.60;99.90;;;;;;4909878;29;20083;-70
2022/07/14 03:52:46;;;;;;;12.02;4.32;;;14.60;99.90;;;;;;4932656;29;20044;-71
2022/07/14 03:55:11;;;;;;;13.73;4.22;;;14.70;99.90;;;;;;4912249;29;20047;-71
2022/07/14 03:57:37;;;;;;;9.52;4.18;;;14.70;99.90;;;;;;4931134;29;20043;-70
2022/07/14 04:00:04;;;;;;;14.23;5.10;;;14.80;99.90;;;;;;4929694;29;20052;-70
2022/07/14 04:02:29;;;;;;;11.63;4.57;;;14.80;99.90;;;;;;4910866;29;20051;-70
2022/07/14 04:04:55;;;;;;;11.45;4.38;;;14.80;99.90;;;;;;4930630;29;20160;-70
2022/07/14 04:07:20;;;;;;;11.48;4.38;;;14.90;99.90;;;;;;4933001;29;20134;-70
2022/07/14 04:09:46;;;;;;;12.30;4.45;;;14.80;99.90;;;;;;4909576;29;20036;-71
2022/07/14 04:12:13;;;;;;;13.52;5.00;;;14.90;99.90;;;;;;4932020;29;20051;-71
2022/07/14 04:14:39;;;;;;;12.95;4.50;;;14.90;99.90;;;;;;4930699;29;20036;-70
2022/07/14 04:17:04;;;;;;;15.25;4.63;;;15.00;99.90;;;;;;4932142;29;20458;-70
2022/07/14 04:19:30;;;;;;;16.30;4.60;;;15.00;99.90;;;;;;4913269;29;20040;-70
2022/07/14 04:21:56;;;;;;;9.23;4.07;;;15.00;99.90;;;;;;4930325;29;20047;-70
2022/07/14 04:24:21;;;;;;;9.77;4.15;;;15.00;99.90;;;;;;4932704;29;20044;-70
2022/07/14 04:26:47;;;;;;;13.43;4.68;;;15.10;99.90;;;;;;4903800;29;20111;-70
2022/07/14 04:29:13;;;;;;;9.55;3.95;;;15.00;99.90;;;;;;4909203;29;20385;-70
2022/07/14 04:31:39;;;;;;;15.70;5.13;;;15.10;99.90;;;;;;4931123;29;20056;-70
2022/07/14 04:34:04;;;;;;;11.55;5.05;;;15.10;99.90;;;;;;4932116;29;20078;-70
2022/07/14 04:36:30;;;;;;;12.43;5.10;;;15.10;99.90;;;;;;4930591;29;20126;-70
2022/07/14 04:38:59;;;;;;;16.67;6.15;;;15.10;99.90;;;;;;4928977;29;20380;-70
2022/07/14 04:41:25;;;;;;;15.55;5.28;;;15.20;99.90;;;;;;4929734;29;20055;-70
2022/07/14 04:43:52;;;;;;;11.23;5.20;;;15.20;99.90;;;;;;4912787;29;20131;-70
2022/07/14 04:46:18;;;;;;;17.52;5.28;;;15.30;99.90;;;;;;4931688;29;20502;-70
2022/07/14 04:54:12;;;;;;;13.93;5.20;;;15.50;99.90;;;;;;4931170;29;20377;-70
2022/07/14 04:56:37;;;;;;;10.40;4.35;;;15.50;99.90;;;;;;4911520;29;20058;-70
2022/07/14 04:59:03;;;;;;;11.98;4.75;;;15.50;99.90;;;;;;4931267;29;20490;-70
2022/07/14 05:01:28;;;;;;;11.23;4.32;;;15.50;99.90;;;;;;4930101;29;20103;-70
2022/07/14 05:03:54;;;;;;;11.40;4.53;;;15.50;99.90;;;;;;4928131;29;20727;-70
2022/07/14 05:06:20;;;;;;;13.60;4.65;;;15.50;99.90;;;;;;4931771;29;20048;-70
2022/07/14 05:08:46;;;;;;;13.30;4.85;;;15.50;99.90;;;;;;4930872;29;20558;-70
2022/07/14 05:11:14;;;;;;;13.63;4.90;;;15.50;99.90;;;;;;4928321;29;20047;-69
2022/07/14 05:13:40;;;;;;;13.23;4.60;;;15.60;99.90;;;;;;4931277;29;20051;-70
2022/07/14 05:16:06;;;;;;;9.77;3.97;;;15.60;99.90;;;;;;4914665;29;20052;-70
2022/07/14 05:18:31;;;;;;;12.52;4.68;;;15.60;99.90;;;;;;4929694;29;20439;-70
2022/07/14 05:20:57;;;;;;;11.63;4.22;;;15.60;99.90;;;;;;4928157;29;20087;-70
2022/07/14 05:23:23;;;;;;;12.82;4.65;;;15.70;99.90;;;;;;4932875;29;20044;-70
2022/07/14 05:25:48;;;;;;;12.70;4.13;;;15.70;99.90;;;;;;4927580;29;20048;-70
2022/07/14 05:28:14;;;;;;;15.98;4.70;;;15.70;99.90;;;;;;4931758;29;20557;-70
2022/07/14 05:30:40;;;;;;;10.50;4.30;;;15.80;99.90;;;;;;4910556;29;20045;-70
2022/07/14 05:33:05;;;;;;;12.73;4.45;;;15.80;99.90;;;;;;4902682;29;20074;-70
2022/07/14 05:35:34;;;;;;;8.95;3.92;;;15.80;99.90;;;;;;4914032;29;20044;-70
2022/07/14 05:38:00;;;;;;;10.65;3.92;;;15.80;99.90;;;;;;4932499;29;20054;-70
2022/07/14 05:40:26;;;;;;;12.68;4.45;;;15.90;99.90;;;;;;4933551;29;20040;-70
2022/07/14 05:42:51;;;;;;;11.38;4.13;;;15.90;99.90;;;;;;4933553;29;20094;-70
2022/07/14 05:45:17;;;;;;;10.32;3.72;;;15.90;99.90;;;;;;4917524;29;20062;-72
2022/07/14 05:47:43;;;;;;;12.43;4.22;;;15.90;99.90;;;;;;4934267;29;20148;-72
2022/07/14 05:50:12;;;;;;;12.35;4.30;;;15.90;99.90;;;;;;4907721;29;20062;-70
2022/07/14 05:52:40;;;;;;;11.00;4.00;;;15.90;99.90;;;;;;4932380;29;20051;-70
2022/07/14 05:55:05;;;;;;;12.38;5.05;;;15.90;99.90;;;;;;4915745;29;20617;-70
2022/07/14 05:57:34;;;;;;;12.02;4.53;;;15.90;99.90;;;;;;4934505;29;20047;-70
2022/07/14 06:00:00;;;;;;;10.02;4.10;;;15.90;99.90;;;;;;4933179;29;20044;-70
2022/07/14 06:02:26;;;;;;;10.18;4.38;;;16.00;99.90;;;;;;4908298;29;20040;-69
2022/07/14 06:04:51;;;;;;;11.57;4.35;;;16.00;99.90;;;;;;4933099;29;20126;-70
2022/07/14 06:07:17;;;;;;;9.43;3.97;;;16.00;99.90;;;;;;4908662;29;20056;-70
2022/07/14 06:09:43;;;;;;;14.75;4.80;;;16.00;99.90;;;;;;4915751;29;20566;-71
2022/07/14 06:12:10;;;;;;;10.20;4.25;;;16.10;99.90;;;;;;4913625;29;20103;-70
2022/07/14 06:14:36;;;;;;;13.45;4.00;;;16.20;99.90;;;;;;4914516;29;20046;-70
2022/07/14 06:17:01;;;;;;;8.40;3.88;;;16.20;99.90;;;;;;4932473;29;20043;-71
2022/07/14 06:19:27;;;;;;;12.25;3.25;;;16.20;99.90;;;;;;4931578;29;20142;-70
2022/07/14 06:21:53;;;;;;;11.25;3.35;;;16.30;99.90;;;;;;4929316;29;20095;-70
2022/07/14 06:24:18;;;;;;;11.80;3.20;;;16.30;99.90;;;;;;4922411;29;20044;-71
2022/07/14 06:26:47;;;;;;;12.05;3.33;;;16.40;99.90;;;;;;4931050;29;20071;-70
2022/07/14 06:29:13;;;;;;;12.27;3.03;;;16.50;99.90;;;;;;4930509;29;20095;-70
2022/07/14 06:31:39;;;;;;;11.57;3.33;;;16.60;99.90;;;;;;4929306;29;20048;-70
2022/07/14 06:34:05;;;;;;;14.18;3.08;;;16.80;99.90;;;;;;4904059;29;20055;-70
2022/07/14 06:36:31;;;;;;;11.55;2.60;;;17.00;99.90;;;;;;4925042;29;20079;-70
2022/07/14 06:38:58;;;;;;;10.55;3.05;;;17.20;99.90;;;;;;4916673;29;20052;-70
2022/07/14 06:41:24;;;;;;;12.13;2.80;;;17.30;99.90;;;;;;4932803;29;20052;-70
2022/07/14 06:43:52;;;;;;;11.80;2.53;;;17.30;99.90;;;;;;4927536;29;20507;-70
2022/07/14 06:46:18;;;;;;;9.70;2.40;;;17.40;99.90;;;;;;4914056;29;20469;-70
2022/07/14 06:48:45;;;;;;;10.63;2.05;;;17.40;99.90;;;;;;4932969;29;20058;-70
2022/07/14 06:51:11;;;;;;;11.48;2.25;;;17.50;99.90;;;;;;4911477;29;20048;-70
2022/07/14 06:53:36;;;;;;;8.35;2.22;;;17.50;99.90;;;;;;4932847;29;20043;-70
2022/07/14 06:56:05;;;;;;;8.45;1.67;;;17.60;99.90;;;;;;4929164;29;20054;-70
2022/07/14 06:58:30;;;;;;;9.98;1.90;;;17.60;99.90;;;;;;4927609;29;20051;-71
2022/07/14 07:00:56;;;;;;;8.35;1.92;;;17.70;99.90;;;;;;4903761;29;20102;-71
2022/07/14 07:03:22;;;;;;;12.85;2.00;;;17.70;99.90;;;;;;4915567;29;20043;-71
2022/07/14 07:08:32;;;;;;;10.43;2.10;;;17.70;99.90;;;;;;4900060;29;20048;-71
2022/07/14 07:11:00;;;;;;;8.60;1.83;;;17.70;99.90;;;;;;4921767;29;20067;-72
2022/07/14 07:13:29;;;;;;;8.43;1.80;;;17.60;99.90;;;;;;4912873;29;20050;-71
2022/07/14 07:15:55;;;;;;;9.65;1.85;;;17.60;99.90;;;;;;4930947;29;20057;-71
2022/07/14 07:18:21;;;;;;;6.68;1.70;;;17.60;99.90;;;;;;4929836;29;20048;-71
2022/07/14 07:20:47;;;;;;;8.38;2.03;;;17.60;99.90;;;;;;4922257;29;20055;-74
2022/07/14 07:23:12;;;;;;;16.60;2.83;;;17.70;99.90;;;;;;4923723;29;20035;-70
2022/07/14 07:25:38;;;;;;;6.30;1.50;;;17.70;99.90;;;;;;4931251;29;20054;-70
2022/07/14 07:28:04;;;;;;;8.65;1.90;;;17.70;99.90;;;;;;4933718;29;20439;-68
2022/07/14 07:30:30;;;;;;;8.10;1.70;;;17.70;99.90;;;;;;4915577;29;20044;-70
2022/07/14 07:32:56;;;;;;;6.10;1.77;;;17.80;99.90;;;;;;4931189;29;20541;-70
2022/07/14 07:35:22;;;;;;;6.55;1.73;;;18.00;99.90;;;;;;4931097;29;20046;-69
2022/07/14 07:37:48;;;;;;;8.05;1.77;;;18.20;99.90;;;;;;4927971;29;20119;-70
2022/07/14 07:40:15;;;;;;;7.05;1.48;;;18.30;99.90;;;;;;4928012;29;20131;-71
2022/07/14 07:42:41;;;;;;;6.47;1.42;;;18.30;99.90;;;;;;4914303;29;20055;-69
2022/07/14 07:45:08;;;;;;;7.78;2.10;;;18.20;99.90;;;;;;4905885;29;20055;-70
2022/07/14 07:47:34;;;;;;;8.82;1.67;;;18.10;99.90;;;;;;4915405;29;20046;-69
2022/07/14 07:49:59;;;;;;;8.35;1.58;;;18.00;99.90;;;;;;4929147;29;20110;-69
2022/07/14 07:52:25;;;;;;;7.18;1.30;;;17.90;99.90;;;;;;4914381;29;20051;-68
2022/07/14 07:54:51;;;;;;;7.18;1.77;;;17.90;99.90;;;;;;4924556;29;20071;-70
2022/07/14 07:57:17;;;;;;;6.05;1.50;;;18.00;99.90;;;;;;4911726;29;20036;-69
2022/07/14 07:59:42;;;;;;;9.82;1.55;;;18.10;99.90;;;;;;4921099;29;20036;-69
2022/07/14 08:02:08;;;;;;;7.53;1.88;;;18.20;99.90;;;;;;4915010;29;20064;-68
2022/07/14 08:04:34;;;;;;;9.23;1.55;;;18.30;99.90;;;;;;4919081;29;20048;-70
2022/07/14 08:06:59;;;;;;;5.63;1.50;;;18.30;99.90;;;;;;4909790;29;20043;-69
2022/07/14 08:09:25;;;;;;;9.52;2.13;;;18.40;99.90;;;;;;4930784;29;20387;-68
2022/07/14 08:11:51;;;;;;;7.22;1.67;;;18.40;99.90;;;;;;4928582;29;20079;-69
2022/07/14 08:17:01;;;;;;;6.55;1.52;;;18.50;99.90;;;;;;4921972;29;20499;-69
2022/07/14 08:19:27;;;;;;;6.38;1.40;;;18.60;99.90;;;;;;4903398;29;20166;-69
2022/07/14 08:21:54;;;;;;;6.15;1.40;;;18.70;99.90;;;;;;4909496;29;20098;-69
2022/07/14 08:24:20;;;;;;;6.68;1.35;;;18.80;99.90;;;;;;4905441;29;20044;-70
2022/07/14 08:26:47;;;;;;;6.28;1.73;;;18.90;99.90;;;;;;4936112;29;20051;-70
2022/07/14 08:29:13;;;;;;;5.63;1.27;;;19.00;99.90;;;;;;4905686;29;20087;-69
2022/07/14 08:31:39;;;;;;;5.38;1.20;;;19.10;99.90;;;;;;4941342;29;20059;-72
2022/07/14 08:34:05;;;;;;;4.70;1.15;;;19.30;99.90;;;;;;4925756;29;20040;-71
2022/07/14 08:36:31;;;;;;;6.72;1.30;;;19.40;99.90;;;;;;4909324;29;20519;-71
2022/07/14 08:38:57;;;;;;;4.80;1.00;;;19.60;99.90;;;;;;4930747;29;20051;-71
2022/07/14 08:41:23;;;;;;;7.95;1.40;;;19.80;99.90;;;;;;4932066;29;20145;-71
2022/07/14 08:43:52;;;;;;;6.43;1.20;;;19.70;99.90;;;;;;4913495;29;20059;-71
2022/07/14 08:46:22;;;;;;;4.68;1.25;;;19.60;99.90;;;;;;4931449;29;20051;-71
2022/07/14 08:48:48;;;;;;;8.15;1.80;;;19.40;99.90;;;;;;4930902;29;20040;-71
2022/07/14 08:51:14;;;;;;;6.68;1.38;;;19.30;99.90;;;;;;4905562;29;20079;-71
2022/07/14 08:53:42;;;;;;;4.25;1.15;;;19.10;99.90;;;;;;4926767;29;20151;-71
2022/07/14 08:56:08;;;;;;;6.70;1.30;;;19.20;99.90;;;;;;4930797;29;20082;-71
2022/07/14 08:58:34;;;;;;;4.22;1.05;;;19.30;99.90;;;;;;4931786;29;20051;-71
2022/07/14 09:01:00;;;;;;;4.70;1.08;;;19.50;99.90;;;;;;4929793;29;20071;-71
2022/07/14 09:03:25;;;;;;;3.78;1.08;;;19.50;99.90;;;;;;4929689;29;20048;-71
2022/07/14 09:05:53;;;;;;;7.25;1.23;;;19.50;99.90;;;;;;4912305;29;20051;-71
2022/07/14 09:08:18;;;;;;;;;;;19.50;99.90;;;;;;4931997;29;20051;-71
2022/07/14 09:10:45;;;;;;;3.78;0.95;;;19.50;99.90;;;;;;4912110;29;19930;-71
2022/07/14 09:13:20;;;;;;;4.65;1.10;;;19.70;99.90;;;;;;4928996;29;20488;-72
2022/07/14 09:15:47;;;;;;;4.55;0.98;;;19.80;99.90;;;;;;4932588;29;20039;-72
2022/07/14 09:18:26;;;;;;;6.25;1.08;;;20.00;99.90;;;;;;4935912;29;20039;-71
2022/07/14 09:20:57;;;;;;;4.63;1.05;;;20.10;99.90;;;;;;4917906;29;20040;-73
2022/07/14 09:23:27;;;;;;;6.50;1.20;;;20.30;99.90;;;;;;4918996;29;20052;-72
2022/07/14 09:26:10;;;;;;;3.97;0.90;;;20.30;99.90;;;;;;4909172;29;20047;-73
2022/07/14 09:28:43;;;;;;;5.60;1.38;;;20.50;99.90;;;;;;4932892;29;20051;-72
2022/07/14 09:31:22;;;;;;;3.97;1.02;;;20.60;99.90;;;;;;4912926;29;20063;-71
2022/07/14 09:34:00;;;;;;;5.15;0.90;;;20.60;95.80;;;;;;4918297;29;20480;-73
2022/07/14 09:36:44;;;;;;;3.22;1.05;;;20.60;96.50;;;;;;4935577;29;20044;-73
2022/07/14 09:39:12;;;;;;;4.60;1.05;;;20.60;98.30;;;;;;4916469;29;20092;-72
2022/07/14 09:41:53;;;;;;;4.18;1.08;;;20.60;99.90;;;;;;4933646;29;20056;-73
2022/07/14 09:44:20;;;;;;;5.22;1.23;;;20.70;99.90;;;;;;4934245;29;20430;-73
2022/07/14 09:46:48;;;;;;;6.32;1.00;;;20.70;99.90;;;;;;4935782;29;20534;-74
2022/07/14 09:49:16;;;;;;;3.88;0.90;;;20.80;99.90;;;;;;4915413;29;20562;-75
2022/07/14 09:51:52;;;;;;;3.67;1.10;;;20.90;99.20;;;;;;4895850;29;20056;-73
2022/07/14 09:54:37;;;;;;;6.07;1.17;;;21.00;97.90;;;;;;4887879;29;20052;-72
2022/07/14 09:57:26;;;;;;;3.65;1.00;;;21.00;97.60;;;;;;4896816;29;20585;-73
2022/07/14 09:59:54;;;;;;;4.05;1.00;;;21.00;96.40;;;;;;4892662;29;20088;-74
2022/07/14 10:02:29;;;;;;;6.13;1.13;;;21.00;97.80;;;;;;4896825;29;20547;-74
2022/07/14 10:05:02;;;;;;;4.57;1.05;;;21.00;97.10;;;;;;4894381;29;20416;-77
2022/07/14 10:07:33;;;;;;;4.85;1.10;;;20.90;96.80;;;;;;4892540;29;20326;-76
2022/07/14 10:10:09;;;;;;;2.85;0.70;;;20.90;98.50;;;;;;4885247;29;20489;-74
2022/07/14 10:12:36;;;;;;;6.35;1.10;;;20.90;99.30;;;;;;4893375;29;20409;-72
2022/07/14 10:15:07;;;;;;;5.32;1.02;;;20.90;98.80;;;;;;4895317;29;20206;-73
2022/07/14 10:17:35;;;;;;;4.05;0.80;;;20.90;98.30;;;;;;4893758;29;20063;-73
2022/07/14 10:20:04;;;;;;;5.15;1.10;;;20.80;98.10;;;;;;4894626;29;20059;-73
2022/07/14 10:22:30;;;;;;;2.47;0.98;;;20.80;98.70;;;;;;4894522;29;20452;-72
2022/07/14 10:24:56;;;;;;;5.15;1.17;;;20.80;98.70;;;;;;4891199;29;20072;-72
2022/07/14 10:27:25;;;;;;;5.32;0.95;;;20.90;99.50;;;;;;4895019;29;20116;-73
2022/07/14 10:29:53;;;;;;;3.22;0.82;;;20.90;99.20;;;;;;4893885;29;20044;-72
2022/07/14 10:32:58;;;;;;;3.90;1.13;;;20.90;98.30;;;;;;4895492;29;20543;-72
2022/07/14 10:35:41;;;;;;;3.75;0.80;;;20.90;98.90;;;;;;4892734;29;20065;-72
2022/07/14 10:38:23;;;;;;;4.22;0.90;;;20.90;99.00;;;;;;4893880;29;20400;-74
2022/07/14 10:41:16;;;;;;;4.10;1.02;;;21.00;97.70;;;;;;4888626;29;20188;-74
2022/07/14 10:44:06;;;;;;;4.82;1.05;;;21.00;96.30;;;;;;4887855;29;20049;-73
2022/07/14 10:46:42;;;;;;;2.30;0.73;;;20.90;96.90;;;;;;4888634;29;20543;-73
2022/07/14 10:49:10;;;;;;;6.07;1.30;;;20.90;96.80;;;;;;4894436;29;20056;-78
2022/07/14 10:51:46;;;;;;;4.28;0.80;;;20.80;97.30;;;;;;4928988;29;20058;-77
2022/07/14 10:54:16;;;;;;;3.78;0.90;;;20.90;98.80;;;;;;4913124;29;20134;-73
2022/07/14 10:56:44;;;;;;;3.30;0.82;;;20.80;96.40;;;;;;4931782;29;20711;-73
2022/07/14 10:59:26;;;;;;;5.15;1.23;;;20.80;95.20;;;;;;4915997;29;20094;-73
2022/07/14 11:02:10;;;;;;;4.75;1.20;;;20.90;97.00;;;;;;4921190;29;20060;-73
2022/07/14 11:05:01;;;;;;;3.00;0.85;;;20.90;95.30;;;;;;4914029;29;20451;-73
2022/07/14 11:07:38;;;;;;;4.78;0.90;;;20.90;96.80;;;;;;4916858;29;20065;-73
2022/07/14 11:10:20;;;;;;;3.42;1.20;;;20.90;98.20;;;;;;4910698;29;20441;-73
2022/07/14 11:13:04;;;;;;;6.03;1.30;;;21.00;98.00;;;;;;4931817;29;20044;-73
2022/07/14 11:16:02;;;;;;;5.63;1.08;;;21.10;97.60;;;;;;4915629;29;20052;-74
2022/07/14 11:18:37;;;;;;;5.28;0.77;;;21.10;98.10;;;;;;4916312;29;20059;-73
2022/07/14 11:21:07;;;;;;;2.53;0.70;;;21.10;98.30;;;;;;4930007;29;20051;-74
2022/07/14 11:23:39;;;;;;;4.53;1.30;;;21.20;98.80;;;;;;4917166;29;20083;-74
2022/07/14 11:26:47;;;;;;;4.15;1.05;;;21.30;98.80;;;;;;4903904;29;20059;-74
2022/07/14 11:29:13;;;;;;;3.55;0.70;;;21.30;99.00;;;;;;4903014;29;20047;-73
2022/07/14 11:31:52;;;;;;;4.17;1.07;;;21.30;97.60;;;;;;4929322;29;20051;-73
2022/07/14 11:37:12;;;;;;;6.22;0.98;;;21.20;95.90;;;;;;4931540;29;20126;-75
2022/07/14 11:39:38;;;;;;;;;;;21.10;96.90;;;;;;4930315;29;20048;-72
2022/07/14 11:42:12;;;;;;;3.22;0.75;;;21.20;98.10;;;;;;4926162;29;19927;-72
2022/07/14 11:44:40;;;;;;;3.33;0.70;;;21.20;96.20;;;;;;4915321;29;20055;-73
2022/07/14 11:47:37;;;;;;;4.22;0.85;;;21.20;96.10;;;;;;4913080;29;20398;-73
2022/07/14 11:50:07;;;;;;;3.83;0.85;;;21.30;96.70;;;;;;4915543;29;20060;-73
2022/07/14 11:52:38;;;;;;;5.13;0.98;;;21.30;96.40;;;;;;4932943;29;20078;-72
2022/07/14 11:55:07;;;;;;;2.85;0.82;;;21.30;95.50;;;;;;4911614;29;20044;-72
2022/07/14 11:57:33;;;;;;;3.58;0.82;;;21.30;95.30;;;;;;4931138;29;20036;-71
2022/07/14 12:00:10;;;;;;;3.47;0.90;;;21.30;96.90;;;;;;4930001;29;20036;-72
2022/07/14 12:02:51;;;;;;;3.35;1.02;;;21.40;96.20;;;;;;4925952;29;20055;-73
2022/07/14 12:05:16;;;;;;;5.93;1.00;;;21.30;96.80;;;;;;4906802;29;20052;-72
2022/07/14 12:07:47;;;;;;;4.03;1.20;;;21.30;96.10;;;;;;4931085;29;20047;-74
2022/07/14 12:10:36;;;;;;;;;;;21.30;96.00;;;;;;4915133;29;20052;-73
2022/07/14 12:13:03;;;;;;;4.15;0.90;;;21.30;95.70;;;;;;4913363;29;19994;-74
2022/07/14 12:15:30;;;;;;;3.08;0.80;;;21.30;96.10;;;;;;4914055;29;20057;-74
2022/07/14 12:17:56;;;;;;;2.38;0.68;;;21.40;95.80;;;;;;4930726;29;20047;-75
2022/07/14 12:20:22;;;;;;;3.13;0.82;;;21.40;96.50;;;;;;4912781;29;20413;-75
2022/07/14 12:22:55;;;;;;;2.38;0.85;;;21.40;96.60;;;;;;4927876;29;20075;-77
2022/07/14 12:25:33;;;;;;;3.17;0.80;;;21.50;96.90;;;;;;4904062;29;20127;-78
2022/07/14 12:28:09;;;;;;;4.20;1.02;;;21.50;96.60;;;;;;4911695;29;20052;-75
2022/07/14 12:30:51;;;;;;;3.80;0.90;;;21.60;96.90;;;;;;4915066;29;20126;-74
2022/07/14 12:33:36;;;;;;;3.80;0.93;;;21.60;95.70;;;;;;4928111;29;20051;-74
2022/07/14 12:36:09;;;;;;;4.53;1.38;;;21.70;96.50;;;;;;4906527;29;20075;-76
2022/07/14 12:38:38;;;;;;;2.97;0.85;;;21.70;96.20;;;;;;4928279;29;20083;-79
2022/07/14 12:41:05;;;;;;;2.40;0.85;;;21.90;96.60;;;;;;4930826;29;20365;-76
2022/07/14 12:43:36;;;;;;;2.40;0.85;;;21.90;95.50;;;;;;4933912;29;20497;-75
2022/07/14 12:46:20;;;;;;;2.75;0.90;;;21.90;94.40;;;;;;4937091;29;20055;-76
2022/07/14 12:48:49;;;;;;;3.22;0.88;;;22.00;94.70;;;;;;4931305;29;20054;-75
2022/07/14 12:51:32;;;;;;;3.28;0.90;;;22.20;93.30;;;;;;4929243;29;20071;-75
2022/07/14 12:54:11;;;;;;;3.17;1.05;;;22.20;94.30;;;;;;4929558;29;20055;-78
2022/07/14 12:56:43;;;;;;;3.85;1.10;;;22.50;93.20;;;;;;4928465;29;20439;-76
2022/07/14 12:59:14;;;;;;;3.35;0.85;;;22.50;93.20;;;;;;4913509;29;20134;-76
2022/07/14 13:01:56;;;;;;;3.15;0.95;;;22.60;90.20;;;;;;4934842;29;20516;-75
2022/07/14 13:04:44;;;;;;;3.42;0.82;;;22.80;91.00;;;;;;4931619;29;20074;-76
2022/07/14 13:07:28;;;;;;;3.17;0.90;;;22.70;85.00;;;;;;4927892;29;20107;-76
2022/07/14 13:10:16;;;;;;;4.65;1.00;;;22.50;86.40;;;;;;4932124;29;20070;-77